createdAt,value
2023-02-23T00:01:55.252Z,101175.50
2023-02-23T00:04:24.623Z,101166.94
2023-02-23T00:06:53.487Z,101172.25
2023-02-23T00:09:26.116Z,101168.28
2023-02-23T00:11:55.960Z,101168.28
2023-02-23T00:14:27.901Z,101158.91
2023-02-23T00:16:56.477Z,101163.81
2023-02-23T00:19:25.130Z,101154.84
2023-02-23T00:21:53.728Z,101155.47
2023-02-23T00:24:26.821Z,101156.13
2023-02-23T00:26:54.814Z,101156.88
2023-02-23T00:29:24.448Z,101153.81
2023-02-23T00:31:53.444Z,101152.69
2023-02-23T00:34:23.558Z,101157.31
2023-02-23T00:36:54.207Z,101156.66
2023-02-23T00:39:26.734Z,101165.72
2023-02-23T00:41:55.829Z,101151.59
2023-02-23T00:44:25.419Z,101166.59
2023-02-23T00:46:53.939Z,101150.19
2023-02-23T00:49:23.416Z,101158.34
2023-02-23T00:51:52.240Z,101145.41
2023-02-23T00:54:21.580Z,101148.00
2023-02-23T00:56:51.390Z,101155.47
2023-02-23T00:59:20.191Z,101143.72
2023-02-23T01:01:48.159Z,101146.09
2023-02-23T01:04:16.733Z,101143.72
2023-02-23T01:06:46.220Z,101149.63
2023-02-23T01:09:27.185Z,101147.91
2023-02-23T01:11:57.770Z,101148.44
2023-02-23T01:14:26.244Z,101139.56
2023-02-23T01:16:54.247Z,101140.34
2023-02-23T01:19:22.500Z,101146.13
2023-02-23T01:21:50.544Z,101139.50
2023-02-23T01:24:18.981Z,101150.66
2023-02-23T01:26:47.350Z,101137.44
2023-02-23T01:29:18.744Z,101136.16
2023-02-23T01:31:51.114Z,101139.31
2023-02-23T01:34:21.697Z,101139.69
2023-02-23T01:36:49.942Z,101130.41
2023-02-23T01:39:20.678Z,101123.66
2023-02-23T01:41:48.741Z,101130.78
2023-02-23T01:44:50.422Z,101129.63
2023-02-23T01:47:20.868Z,101121.94
2023-02-23T01:49:50.987Z,101123.97
2023-02-23T01:52:20.781Z,101126.47
2023-02-23T01:54:52.910Z,101118.22
2023-02-23T01:57:25.204Z,101108.03
2023-02-23T01:59:54.762Z,101110.72
2023-02-23T02:02:33.597Z,101113.09
2023-02-23T02:05:05.159Z,101113.78
2023-02-23T02:07:36.188Z,101106.16
2023-02-23T02:10:33.700Z,101111.19
2023-02-23T02:13:05.853Z,101100.06
2023-02-23T02:15:39.182Z,101097.25
2023-02-23T02:18:12.337Z,101092.78
2023-02-23T02:21:18.808Z,101085.81
2023-02-23T02:24:08.196Z,101084.66
2023-02-23T02:26:47.281Z,101090.72
2023-02-23T02:29:44.832Z,101090.22
2023-02-23T02:32:57.059Z,101092.78
2023-02-23T02:35:50.577Z,101091.00
2023-02-23T02:38:31.650Z,101084.97
2023-02-23T02:41:05.522Z,101084.44
2023-02-23T02:43:43.699Z,101086.84
2023-02-23T02:46:17.450Z,101085.50
2023-02-23T02:48:52.515Z,101080.63
2023-02-23T02:51:25.196Z,101082.06
2023-02-23T02:54:07.169Z,101079.69
2023-02-23T02:56:40.384Z,101080.69
2023-02-23T02:59:31.205Z,101081.38
2023-02-23T03:02:17.553Z,101076.25
2023-02-23T03:05:03.403Z,101065.94
2023-02-23T03:07:57.103Z,101066.97
2023-02-23T03:10:51.156Z,101067.94
2023-02-23T03:13:49.578Z,101065.72
2023-02-23T03:16:44.088Z,101055.66
2023-02-23T03:19:35.509Z,101059.00
2023-02-23T03:22:32.293Z,101058.25
2023-02-23T03:25:24.456Z,101056.34
2023-02-23T03:28:15.478Z,101047.38
2023-02-23T03:31:10.096Z,101049.72
2023-02-23T03:34:03.437Z,101060.47
2023-02-23T03:36:54.509Z,101057.03
2023-02-23T03:39:46.520Z,101052.84
2023-02-23T03:42:38.033Z,101052.06
2023-02-23T03:45:30.494Z,101055.56
2023-02-23T03:48:18.278Z,101051.31
2023-02-23T03:51:09.463Z,101049.34
2023-02-23T03:54:03.579Z,101048.81
2023-02-23T03:56:52.409Z,101045.84
2023-02-23T03:59:42.032Z,101041.19
2023-02-23T04:02:31.272Z,101041.88
2023-02-23T04:05:20.615Z,101045.91
2023-02-23T04:08:10.916Z,101036.75
2023-02-23T04:11:12.727Z,101034.34
2023-02-23T04:13:41.342Z,101038.44
2023-02-23T04:16:10.422Z,101037.19
2023-02-23T04:18:40.647Z,101041.63
2023-02-23T04:21:09.100Z,101041.25
2023-02-23T04:23:40.617Z,101043.13
2023-02-23T04:26:08.511Z,101047.88
2023-02-23T04:28:36.517Z,101039.72
2023-02-23T04:31:04.518Z,101049.91
2023-02-23T04:33:32.533Z,101046.22
2023-02-23T04:36:01.771Z,101037.81
2023-02-23T04:38:29.608Z,101038.66
2023-02-23T04:40:57.435Z,101034.91
2023-02-23T04:43:25.273Z,101039.91
2023-02-23T04:45:53.357Z,101030.66
2023-02-23T04:48:21.245Z,101029.41
2023-02-23T04:50:52.700Z,101035.50
2023-02-23T04:53:21.899Z,101023.28
2023-02-23T04:55:49.832Z,101030.59
2023-02-23T04:58:17.784Z,101029.09
2023-02-23T05:00:45.646Z,101023.28
2023-02-23T05:03:13.824Z,101020.09
2023-02-23T05:05:41.691Z,101017.56
2023-02-23T05:08:09.598Z,101027.63
2023-02-23T05:10:40.383Z,101020.94
2023-02-23T05:13:08.493Z,101020.47
2023-02-23T05:15:37.127Z,101013.69
2023-02-23T05:18:05.033Z,101006.38
2023-02-23T05:20:32.923Z,101017.63
2023-02-23T05:23:00.863Z,101015.41
2023-02-23T05:25:28.723Z,101011.28
2023-02-23T05:27:57.951Z,101017.63
2023-02-23T05:30:25.935Z,101009.72
2023-02-23T05:32:53.786Z,101016.00
2023-02-23T05:35:21.668Z,101011.97
2023-02-23T05:37:49.565Z,101010.94
2023-02-23T05:40:17.531Z,101018.00
2023-02-23T05:42:45.401Z,101018.44
2023-02-23T05:45:14.674Z,101023.00
2023-02-23T05:47:42.604Z,101029.13
2023-02-23T05:50:12.440Z,101034.72
2023-02-23T05:52:41.981Z,101035.13
2023-02-23T05:55:12.610Z,101039.72
2023-02-23T05:57:41.170Z,101038.94
2023-02-23T06:00:11.863Z,101041.81
2023-02-23T06:02:41.759Z,101043.03
2023-02-23T06:05:10.800Z,101045.63
2023-02-23T06:07:38.840Z,101036.69
2023-02-23T06:10:07.784Z,101040.44
2023-02-23T06:12:36.432Z,101059.53
2023-02-23T06:15:04.679Z,101050.63
2023-02-23T06:17:32.534Z,101047.78
2023-02-23T06:20:03.469Z,101049.13
2023-02-23T06:22:31.400Z,101047.75
2023-02-23T06:24:59.317Z,101041.22
2023-02-23T06:27:27.256Z,101043.72
2023-02-23T06:29:55.113Z,101051.25
2023-02-23T06:32:23.066Z,101050.13
2023-02-23T06:34:52.429Z,101057.22
2023-02-23T06:37:21.654Z,101057.16
2023-02-23T06:39:50.469Z,101055.44
2023-02-23T06:42:18.487Z,101048.34
2023-02-23T06:44:46.423Z,101056.56
2023-02-23T06:47:14.337Z,101057.09
2023-02-23T06:49:42.565Z,101061.13
2023-02-23T06:52:13.525Z,101069.53
2023-02-23T06:54:42.973Z,101063.69
2023-02-23T06:57:11.186Z,101060.56
2023-02-23T06:59:39.255Z,101061.13
2023-02-23T07:02:07.451Z,101064.25
2023-02-23T07:04:35.362Z,101063.81
2023-02-23T07:07:03.641Z,101059.19
2023-02-23T07:09:31.602Z,101059.78
2023-02-23T07:12:00.967Z,101058.06
2023-02-23T07:14:29.289Z,101061.59
2023-02-23T07:16:57.121Z,101057.56
2023-02-23T07:19:25.004Z,101057.38
2023-02-23T07:21:53.569Z,101061.59
2023-02-23T07:24:21.945Z,101053.53
2023-02-23T07:26:50.188Z,101050.19
2023-02-23T07:29:20.001Z,101047.06
2023-02-23T07:31:50.055Z,101058.06
2023-02-23T07:34:18.051Z,101057.53
2023-02-23T07:36:45.924Z,101051.53
2023-02-23T07:39:13.939Z,101050.47
2023-02-23T07:41:41.801Z,101052.59
2023-02-23T07:44:20.225Z,101045.88
2023-02-23T07:46:48.181Z,101045.09
2023-02-23T07:49:16.115Z,101044.47
2023-02-23T07:51:44.002Z,101037.44
2023-02-23T07:54:11.882Z,101045.91
2023-02-23T07:56:40.552Z,101043.28
2023-02-23T07:59:08.474Z,101036.69
2023-02-23T08:01:37.729Z,101037.53
2023-02-23T08:04:05.920Z,101040.16
2023-02-23T08:06:33.808Z,101033.28
2023-02-23T08:09:03.176Z,101035.44
2023-02-23T08:11:31.123Z,101037.44
2023-02-23T08:14:00.303Z,101041.03
2023-02-23T08:16:28.713Z,101031.09
2023-02-23T08:18:59.643Z,101034.41
2023-02-23T08:21:29.276Z,101032.31
2023-02-23T08:23:57.829Z,101033.84
2023-02-23T08:26:26.057Z,101027.06
2023-02-23T08:28:54.319Z,101036.22
2023-02-23T08:31:27.530Z,101024.44
2023-02-23T08:33:59.824Z,101027.25
2023-02-23T08:36:27.777Z,101029.56
2023-02-23T08:38:55.835Z,101026.16
2023-02-23T08:41:24.053Z,101032.69
2023-02-23T08:43:51.931Z,101028.81
2023-02-23T08:46:20.581Z,101027.66
2023-02-23T08:48:48.531Z,101032.22
2023-02-23T08:51:18.235Z,101033.91
2023-02-23T08:53:46.472Z,101038.38
2023-02-23T08:56:15.321Z,101042.31
2023-02-23T08:58:43.853Z,101033.78
2023-02-23T09:01:18.476Z,101034.34
2023-02-23T09:03:46.678Z,101033.63
2023-02-23T09:06:20.052Z,101027.59
2023-02-23T09:08:48.454Z,101028.25
2023-02-23T09:11:16.489Z,101032.25
2023-02-23T09:13:45.030Z,101033.06
2023-02-23T09:16:13.044Z,101033.59
2023-02-23T09:18:41.749Z,101036.34
2023-02-23T09:21:18.925Z,101035.06
2023-02-23T09:23:51.218Z,101036.09
2023-02-23T09:26:19.980Z,101031.28
2023-02-23T09:28:48.117Z,101031.50
2023-02-23T09:31:18.423Z,101024.84
2023-02-23T09:33:46.774Z,101022.50
2023-02-23T09:36:17.278Z,101028.31
2023-02-23T09:38:45.370Z,101024.41
2023-02-23T09:41:46.974Z,101028.38
2023-02-23T09:44:26.333Z,101020.25
2023-02-23T09:47:04.204Z,101025.19
2023-02-23T09:49:36.034Z,101024.94
2023-02-23T09:52:06.006Z,101016.78
2023-02-23T09:54:36.772Z,101017.44
2023-02-23T09:57:13.452Z,101012.44
2023-02-23T09:59:41.867Z,101008.03
2023-02-23T10:02:21.738Z,101013.84
2023-02-23T10:04:53.817Z,101006.00
2023-02-23T10:07:26.926Z,101000.34
2023-02-23T10:10:07.444Z,101010.50
2023-02-23T10:12:46.941Z,101006.09
2023-02-23T10:15:26.331Z,101008.38
2023-02-23T10:18:04.164Z,101011.53
2023-02-23T10:20:38.441Z,101008.34
2023-02-23T10:23:13.109Z,100993.78
2023-02-23T10:25:47.746Z,100991.06
2023-02-23T10:28:21.533Z,100993.22
2023-02-23T10:30:51.198Z,100993.94
2023-02-23T10:33:25.256Z,100993.63
2023-02-23T10:36:12.619Z,100993.63
2023-02-23T10:38:41.097Z,100992.59
2023-02-23T10:41:12.140Z,100995.84
2023-02-23T10:43:43.359Z,100992.69
2023-02-23T10:46:20.842Z,100987.06
2023-02-23T10:48:50.350Z,100993.88
2023-02-23T10:51:22.893Z,100991.06
2023-02-23T10:53:52.855Z,100984.47
2023-02-23T10:56:22.406Z,100983.28
2023-02-23T10:58:53.081Z,100985.41
2023-02-23T11:01:36.230Z,100977.78
2023-02-23T11:04:14.577Z,100966.38
2023-02-23T11:06:44.569Z,100971.38
2023-02-23T11:09:41.878Z,100965.22
2023-02-23T11:12:22.056Z,100964.97
2023-02-23T11:14:52.827Z,100971.41
2023-02-23T11:17:31.996Z,100963.00
2023-02-23T11:20:02.723Z,100961.97
2023-02-23T11:22:37.208Z,100960.69
2023-02-23T11:25:16.649Z,100955.81
2023-02-23T11:27:51.363Z,100957.22
2023-02-23T11:30:24.567Z,100953.41
2023-02-23T11:32:54.013Z,100952.38
2023-02-23T11:35:31.858Z,100955.06
2023-02-23T11:37:59.811Z,100952.41
2023-02-23T11:40:29.567Z,100946.69
2023-02-23T11:43:01.073Z,100944.47
2023-02-23T11:45:34.537Z,100941.66
2023-02-23T11:48:04.608Z,100930.63
2023-02-23T11:50:35.559Z,100930.09
2023-02-23T11:53:06.769Z,100929.75
2023-02-23T11:55:37.832Z,100922.09
2023-02-23T11:58:11.736Z,100919.72
2023-02-23T12:00:41.419Z,100911.53
2023-02-23T12:03:22.931Z,100918.16
2023-02-23T12:05:53.240Z,100910.28
2023-02-23T12:08:31.339Z,100918.72
2023-02-23T12:11:01.701Z,100918.75
2023-02-23T12:13:34.905Z,100910.97
2023-02-23T12:16:11.416Z,100907.81
2023-02-23T12:18:47.824Z,100910.34
2023-02-23T12:21:25.220Z,100909.41
2023-02-23T12:24:04.355Z,100905.28
2023-02-23T12:26:35.090Z,100912.25
2023-02-23T12:29:21.428Z,100912.66
2023-02-23T12:31:55.390Z,100899.19
2023-02-23T12:34:28.055Z,100898.19
2023-02-23T12:37:00.483Z,100899.63
2023-02-23T12:39:33.868Z,100895.50
2023-02-23T12:42:05.608Z,100900.31
2023-02-23T12:44:42.707Z,100890.06
2023-02-23T12:47:22.596Z,100893.06
2023-02-23T12:49:57.434Z,100899.75
2023-02-23T12:52:30.517Z,100899.31
2023-02-23T12:54:58.557Z,100890.38
2023-02-23T12:57:38.690Z,100892.22
2023-02-23T13:00:35.843Z,100892.53
2023-02-23T13:03:28.364Z,100890.94
2023-02-23T13:06:03.383Z,100893.47
2023-02-23T13:08:42.854Z,100889.25
2023-02-23T13:11:21.111Z,100896.63
2023-02-23T13:13:55.625Z,100890.38
2023-02-23T13:16:31.692Z,100891.66
2023-02-23T13:19:16.418Z,100889.25
2023-02-23T13:21:53.904Z,100888.97
2023-02-23T13:24:25.269Z,100887.56
2023-02-23T13:27:00.289Z,100887.81
2023-02-23T13:29:35.215Z,100882.03
2023-02-23T13:32:06.126Z,100887.41
2023-02-23T13:34:40.790Z,100889.63
2023-02-23T13:37:10.775Z,100884.28
2023-02-23T13:39:56.722Z,100889.56
2023-02-23T13:42:37.503Z,100895.47
2023-02-23T13:45:35.393Z,100893.53
2023-02-23T13:48:12.973Z,100901.78
2023-02-23T13:50:49.169Z,100903.63
2023-02-23T13:53:38.436Z,100906.03
2023-02-23T13:56:08.598Z,100902.41
2023-02-23T13:58:37.263Z,100906.81
2023-02-23T14:01:19.005Z,100898.38
2023-02-23T14:03:54.367Z,100899.66
2023-02-23T14:06:26.084Z,100900.28
2023-02-23T14:09:00.832Z,100902.28
2023-02-23T14:11:31.024Z,100902.50
2023-02-23T14:14:01.830Z,100903.91
2023-02-23T14:16:29.977Z,100908.31
2023-02-23T14:19:10.909Z,100908.13
2023-02-23T14:21:46.913Z,100906.38
2023-02-23T14:24:19.417Z,100909.22
2023-02-23T14:27:12.777Z,100906.31
2023-02-23T14:29:41.896Z,100914.97
2023-02-23T14:32:31.279Z,100919.53
2023-02-23T14:35:00.552Z,100922.13
2023-02-23T14:37:33.132Z,100924.56
2023-02-23T14:40:14.508Z,100914.56
2023-02-23T14:42:47.080Z,100917.50
2023-02-23T14:45:20.507Z,100919.47
2023-02-23T14:47:52.162Z,100925.94
2023-02-23T14:50:27.005Z,100921.91
2023-02-23T14:52:57.378Z,100928.31
2023-02-23T14:55:29.203Z,100924.28
2023-02-23T14:57:58.360Z,100918.13
2023-02-23T15:00:28.454Z,100910.84
2023-02-23T15:03:00.109Z,100920.66
2023-02-23T15:05:30.573Z,100919.09
2023-02-23T15:08:07.088Z,100912.63
2023-02-23T15:10:39.276Z,100920.09
2023-02-23T15:13:11.870Z,100908.19
2023-02-23T15:15:45.426Z,100911.06
2023-02-23T15:18:22.686Z,100912.16
2023-02-23T15:20:51.702Z,100912.94
2023-02-23T15:23:21.996Z,100912.66
2023-02-23T15:25:51.222Z,100914.25
2023-02-23T15:28:25.273Z,100908.03
2023-02-23T15:30:54.411Z,100906.59
2023-02-23T15:33:28.410Z,100903.84
2023-02-23T15:36:03.848Z,100908.72
2023-02-23T15:38:43.399Z,100908.03
2023-02-23T15:41:23.166Z,100918.59
2023-02-23T15:43:51.265Z,100904.47
2023-02-23T15:46:24.702Z,100917.59
2023-02-23T15:48:54.830Z,100918.94
2023-02-23T15:51:33.876Z,100910.13
2023-02-23T15:54:07.877Z,100916.00
2023-02-23T15:56:36.402Z,100918.94
2023-02-23T15:59:12.958Z,100904.97
2023-02-23T16:01:44.932Z,100910.25
2023-02-23T16:04:19.280Z,100909.50
2023-02-23T16:06:53.138Z,100913.72
2023-02-23T16:09:30.071Z,100906.69
2023-02-23T16:12:03.212Z,100906.00
2023-02-23T16:14:36.242Z,100902.09
2023-02-23T16:17:11.469Z,100898.69
2023-02-23T16:19:41.714Z,100902.97
2023-02-23T16:22:21.367Z,100901.88
2023-02-23T16:24:58.936Z,100902.72
2023-02-23T16:27:28.994Z,100901.63
2023-02-23T16:30:00.206Z,100900.88
2023-02-23T16:32:36.392Z,100901.03
2023-02-23T16:35:15.342Z,100908.66
2023-02-23T16:37:59.130Z,100905.72
2023-02-23T16:40:28.907Z,100903.69
2023-02-23T16:42:59.546Z,100896.84
2023-02-23T16:45:29.659Z,100901.63
2023-02-23T16:48:02.081Z,100896.38
2023-02-23T16:50:30.650Z,100907.13
2023-02-23T16:52:58.654Z,100899.53
2023-02-23T16:55:29.517Z,100913.63
2023-02-23T16:58:00.424Z,100910.69
2023-02-23T17:00:30.468Z,100914.44
2023-02-23T17:03:00.584Z,100916.72
2023-02-23T17:05:30.145Z,100914.19
2023-02-23T17:07:59.021Z,100910.28
2023-02-23T17:10:32.264Z,100918.38
2023-02-23T17:13:04.431Z,100914.81
2023-02-23T17:15:34.876Z,100921.56
2023-02-23T17:18:02.953Z,100920.69
2023-02-23T17:20:32.663Z,100920.91
2023-02-23T17:23:02.382Z,100912.22
2023-02-23T17:25:31.970Z,100917.53
2023-02-23T17:28:01.813Z,100917.63
2023-02-23T17:30:30.533Z,100914.72
2023-02-23T17:33:00.426Z,100923.09
2023-02-23T17:35:33.649Z,100925.78
2023-02-23T17:38:01.938Z,100914.09
2023-02-23T17:40:34.641Z,100920.44
2023-02-23T17:43:04.693Z,100917.50
2023-02-23T17:45:32.994Z,100907.00
2023-02-23T17:48:00.900Z,100914.59
2023-02-23T17:50:29.219Z,100912.38
2023-02-23T17:52:57.851Z,100904.94
2023-02-23T17:55:26.160Z,100911.31
2023-02-23T17:57:55.440Z,100909.84
2023-02-23T18:00:25.067Z,100906.66
2023-02-23T18:02:53.123Z,100904.63
2023-02-23T18:05:21.667Z,100902.53
2023-02-23T18:07:49.634Z,100902.63
2023-02-23T18:10:17.792Z,100896.81
2023-02-23T18:12:46.056Z,100904.34
2023-02-23T18:15:15.400Z,100901.53
2023-02-23T18:17:43.330Z,100900.69
2023-02-23T18:20:15.018Z,100895.97
2023-02-23T18:22:43.656Z,100893.63
2023-02-23T18:25:21.416Z,100889.63
2023-02-23T18:27:53.934Z,100889.63
2023-02-23T18:30:24.687Z,100897.19
2023-02-23T18:32:53.346Z,100892.94
2023-02-23T18:35:21.881Z,100891.47
2023-02-23T18:37:49.933Z,100889.41
2023-02-23T18:40:24.839Z,100890.84
2023-02-23T18:42:52.827Z,100894.38
2023-02-23T18:45:20.694Z,100888.53
2023-02-23T18:47:50.151Z,100898.44
2023-02-23T18:50:19.605Z,100893.78
2023-02-23T18:52:48.896Z,100888.91
2023-02-23T18:55:16.910Z,100895.63
2023-02-23T18:57:45.310Z,100896.34
2023-02-23T19:00:15.769Z,100890.50
2023-02-23T19:02:46.361Z,100891.09
2023-02-23T19:05:20.160Z,100890.84
2023-02-23T19:07:49.067Z,100886.34
2023-02-23T19:10:17.371Z,100891.22
2023-02-23T19:12:45.266Z,100883.34
2023-02-23T19:15:13.633Z,100879.75
2023-02-23T19:17:41.489Z,100879.16
2023-02-23T19:20:13.667Z,100875.41
2023-02-23T19:22:43.942Z,100883.44
2023-02-23T19:25:14.279Z,100872.97
2023-02-23T19:27:42.767Z,100879.53
2023-02-23T19:30:11.911Z,100869.31
2023-02-23T19:32:40.671Z,100867.84
2023-02-23T19:35:14.679Z,100876.25
2023-02-23T19:37:51.009Z,100867.13
2023-02-23T19:40:22.866Z,100863.00
2023-02-23T19:42:52.788Z,100870.41
2023-02-23T19:45:21.854Z,100868.25
2023-02-23T19:47:52.664Z,100861.50
2023-02-23T19:50:20.707Z,100872.00
2023-02-23T19:52:50.453Z,100872.72
2023-02-23T19:55:20.258Z,100863.09
2023-02-23T19:57:48.287Z,100867.28
2023-02-23T20:00:16.888Z,100869.69
2023-02-23T20:02:44.794Z,100871.03
2023-02-23T20:05:14.438Z,100873.59
2023-02-23T20:07:43.242Z,100882.19
2023-02-23T20:10:16.439Z,100875.25
2023-02-23T20:12:44.820Z,100877.38
2023-02-23T20:15:14.698Z,100879.56
2023-02-23T20:17:42.635Z,100880.22
2023-02-23T20:20:12.188Z,100883.38
2023-02-23T20:22:41.400Z,100883.38
2023-02-23T20:25:16.005Z,100886.56
2023-02-23T20:27:45.689Z,100884.69
2023-02-23T20:30:14.545Z,100889.72
2023-02-23T20:32:42.649Z,100890.63
2023-02-23T20:35:13.102Z,100884.00
2023-02-23T20:37:41.182Z,100889.63
2023-02-23T20:40:16.510Z,100886.81
2023-02-23T20:42:47.844Z,100884.44
2023-02-23T20:45:17.953Z,100881.75
2023-02-23T20:47:46.901Z,100882.69
2023-02-23T20:50:15.944Z,100888.03
2023-02-23T20:52:45.913Z,100874.28
2023-02-23T20:55:18.919Z,100873.97
2023-02-23T20:57:49.039Z,100873.59
2023-02-23T21:00:22.603Z,100865.00
2023-02-23T21:02:55.459Z,100865.13
2023-02-23T21:05:25.283Z,100869.81
2023-02-23T21:07:53.913Z,100868.63
2023-02-23T21:10:21.925Z,100873.56
2023-02-23T21:12:53.018Z,100872.38
2023-02-23T21:15:20.919Z,100870.22
2023-02-23T21:17:50.430Z,100870.31
2023-02-23T21:20:20.676Z,100865.69
2023-02-23T21:22:50.168Z,100865.03
2023-02-23T21:25:19.422Z,100860.13
2023-02-23T21:27:47.880Z,100864.06
2023-02-23T21:30:19.435Z,100858.44
2023-02-23T21:32:48.314Z,100861.69
2023-02-23T21:35:16.740Z,100856.50
2023-02-23T21:37:44.696Z,100850.34
2023-02-23T21:40:17.365Z,100851.56
2023-02-23T21:42:45.311Z,100855.03
2023-02-23T21:45:14.124Z,100855.69
2023-02-23T21:47:45.583Z,100848.78
2023-02-23T21:50:15.629Z,100846.44
2023-02-23T21:52:45.685Z,100846.28
2023-02-23T21:55:21.289Z,100844.22
2023-02-23T21:57:50.769Z,100843.88
2023-02-23T22:00:19.158Z,100844.72
2023-02-23T22:02:48.904Z,100842.66
2023-02-23T22:05:18.250Z,100836.88
2023-02-23T22:07:49.428Z,100833.53
2023-02-23T22:10:18.019Z,100830.34
2023-02-23T22:12:45.898Z,100829.44
2023-02-23T22:15:15.814Z,100826.19
2023-02-23T22:17:44.146Z,100824.63
2023-02-23T22:20:14.547Z,100834.91
2023-02-23T22:22:42.873Z,100826.31
2023-02-23T22:25:11.440Z,100820.41
2023-02-23T22:27:41.583Z,100814.50
2023-02-23T22:30:12.217Z,100814.91
2023-02-23T22:32:40.768Z,100820.59
2023-02-23T22:35:09.414Z,100802.91
2023-02-23T22:37:39.358Z,100805.00
2023-02-23T22:40:13.371Z,100815.03
2023-02-23T22:42:43.264Z,100801.38
2023-02-23T22:45:12.229Z,100809.31
2023-02-23T22:47:40.090Z,100803.53
2023-02-23T22:50:12.029Z,100795.00
2023-02-23T22:52:43.099Z,100793.56
2023-02-23T22:55:13.120Z,100803.97
2023-02-23T22:57:41.123Z,100791.09
2023-02-23T23:00:12.495Z,100797.91
2023-02-23T23:02:40.603Z,100793.19
2023-02-23T23:05:09.520Z,100788.16
2023-02-23T23:07:37.399Z,100789.50
2023-02-23T23:10:09.320Z,100780.91
2023-02-23T23:12:37.995Z,100783.78
2023-02-23T23:15:14.610Z,100776.13
2023-02-23T23:17:48.084Z,100778.94
2023-02-23T23:20:17.658Z,100779.09
2023-02-23T23:22:45.609Z,100783.03
2023-02-23T23:25:15.709Z,100788.97
2023-02-23T23:27:45.811Z,100776.25
2023-02-23T23:30:15.423Z,100771.59
2023-02-23T23:32:43.528Z,100771.13
2023-02-23T23:35:13.588Z,100766.19
2023-02-23T23:37:41.627Z,100762.50
2023-02-23T23:40:14.681Z,100765.13
2023-02-23T23:42:46.470Z,100767.16
2023-02-23T23:45:16.233Z,100772.28
2023-02-23T23:47:45.034Z,100768.06
2023-02-23T23:50:14.137Z,100765.44
2023-02-23T23:52:44.471Z,100755.34
2023-02-23T23:55:14.590Z,100759.16
2023-02-23T23:57:44.307Z,100759.25
